Time;durP1;ratioP1;P1;durP2;ratioP2;P2;SDS_P1;SDS_P2;PMS_P1;PMS_P2;Temp;Humidity;BMP_temperature;BMP_pressure;BME280_temperature;BME280_humidity;BME280_pressure;Samples;Min_cycle;Max_cycle;Signal;HPM_P1;HPM_P2
2022/01/18 07:25:58;;;;;;;19.63;15.27;;;8.40;75.20;;;-142.21;100.00;112049.66;6152107;22;1369151;-78
2022/01/18 07:28:25;;;;;;;21.17;14.83;;;8.40;75.00;;;-142.21;100.00;112049.66;6185111;23;20179;-79
2022/01/18 07:30:52;;;;;;;19.67;15.87;;;8.40;75.10;;;-142.21;100.00;112049.66;6185315;23;20402;-77
2022/01/18 07:33:20;;;;;;;19.63;15.47;;;8.40;75.00;;;-142.21;100.00;112049.66;6185949;23;20425;-77
2022/01/18 07:38:23;;;;;;;21.77;16.07;;;8.40;75.20;;;-142.21;100.00;112049.66;6235005;22;20465;-79
2022/01/18 07:40:53;;;;;;;18.07;14.70;;;8.40;74.80;;;-142.21;100.00;112049.66;6274121;22;20478;-79
2022/01/18 07:43:22;;;;;;;20.07;16.00;;;8.50;74.80;;;-142.21;100.00;112049.66;6275245;22;20438;-75
2022/01/18 07:45:51;;;;;;;19.97;15.10;;;8.50;74.80;;;-142.21;100.00;112049.66;6275771;22;20413;-74
2022/01/18 07:48:23;;;;;;;25.63;17.33;;;8.60;75.00;;;-142.21;100.00;112049.66;6276358;22;20429;-76
2022/01/18 07:50:51;;;;;;;20.60;14.97;;;8.60;75.00;;;-142.21;100.00;112049.66;6275662;22;20890;-78
2022/01/18 07:53:21;;;;;;;19.90;15.70;;;8.60;75.00;;;-142.21;100.00;112049.66;6276272;22;20395;-73
2022/01/18 07:55:49;;;;;;;22.63;15.53;;;8.70;75.10;;;-142.21;100.00;112049.66;6275583;22;20774;-75
2022/01/18 07:58:17;;;;;;;25.50;16.50;;;8.70;74.90;;;-142.21;100.00;112049.66;6276353;22;20481;-74
2022/01/18 08:00:48;;;;;;;23.90;18.53;;;8.70;74.90;;;-142.21;100.00;112049.66;6276001;22;20521;-75
2022/01/18 08:03:16;;;;;;;25.97;18.13;;;8.70;75.00;;;-142.21;100.00;112049.66;6276100;22;20408;-78
2022/01/18 08:05:43;;;;;;;22.43;16.40;;;8.70;75.00;;;-142.21;100.00;112049.66;6276027;22;20879;-77
2022/01/18 08:08:13;;;;;;;22.33;16.20;;;8.70;75.10;;;-142.21;100.00;112049.66;6276915;22;20453;-75
2022/01/18 08:10:41;;;;;;;23.90;17.03;;;8.70;75.40;;;-142.21;100.00;112049.66;6278106;22;20407;-80
2022/01/18 08:13:08;;;;;;;21.50;15.60;;;8.70;75.10;;;-142.21;100.00;112049.66;6276944;22;20415;-78
2022/01/18 08:15:38;;;;;;;21.87;16.07;;;8.80;75.20;;;-142.21;100.00;112049.66;6278283;22;20392;-73
2022/01/18 08:18:14;;;;;;;24.17;17.93;;;8.80;75.50;;;-142.21;100.00;112049.66;6277610;22;20863;-75
2022/01/18 08:20:42;;;;;;;33.83;24.47;;;8.90;75.40;;;-142.21;100.00;112049.66;6278433;22;20496;-76
2022/01/18 08:23:10;;;;;;;38.70;27.00;;;8.90;75.10;;;-142.21;100.00;112049.66;6278015;22;20417;-76
2022/01/18 08:25:39;;;;;;;45.93;35.23;;;9.00;75.10;;;-142.21;100.00;112049.66;6277748;22;20423;-75
2022/01/18 08:28:06;;;;;;;43.47;33.10;;;9.00;75.00;;;-142.21;100.00;112049.66;6278251;22;20407;-76
2022/01/18 08:30:34;;;;;;;44.03;32.60;;;9.10;74.90;;;-142.21;100.00;112049.66;6276117;22;20751;-80
2022/01/18 08:33:01;;;;;;;44.43;34.63;;;9.20;75.00;;;-142.21;100.00;112049.66;6276312;22;20898;-81
2022/01/18 08:35:37;;;;;;;42.73;30.83;;;9.20;74.80;;;-142.21;100.00;112049.66;6275931;22;20438;-79
2022/01/18 08:38:05;;;;;;;35.60;29.13;;;9.30;74.60;;;-142.21;100.00;112049.66;6275806;22;20444;-80
2022/01/18 08:40:32;;;;;;;24.90;19.80;;;9.40;74.60;;;-142.21;100.00;112049.66;6275323;22;20457;-80
2022/01/18 08:43:00;;;;;;;31.67;23.77;;;9.40;74.50;;;-142.21;100.00;112049.66;6276271;22;21126;-80
2022/01/18 08:45:27;;;;;;;28.87;22.47;;;9.50;74.40;;;-142.21;100.00;112049.66;6275957;22;20731;-80
2022/01/18 08:47:54;;;;;;;27.30;22.13;;;9.50;74.50;;;-142.21;100.00;112049.66;6276671;22;20403;-80
2022/01/18 08:50:21;;;;;;;25.83;20.47;;;9.50;74.40;;;-142.21;100.00;112049.66;6276379;22;20407;-80
2022/01/18 08:52:52;;;;;;;26.97;19.57;;;9.60;74.50;;;-142.21;100.00;112049.66;6248079;22;20815;-80
2022/01/18 08:55:20;;;;;;;30.43;22.50;;;9.70;75.30;;;-142.21;100.00;112049.66;6276174;22;20431;-80
2022/01/18 08:57:47;;;;;;;32.70;20.80;;;9.70;74.60;;;-142.21;100.00;112049.66;6275501;22;20899;-80
2022/01/18 09:00:16;;;;;;;24.33;17.10;;;9.80;74.50;;;-142.21;100.00;112049.66;6276044;22;20407;-80
2022/01/18 09:02:43;;;;;;;22.90;17.57;;;9.90;74.30;;;-142.21;100.00;112049.66;6275631;22;20443;-80
2022/01/18 09:05:11;;;;;;;23.70;18.23;;;10.00;73.00;;;-142.21;100.00;112049.66;6275797;22;20433;-80
2022/01/18 09:07:39;;;;;;;23.33;18.73;;;10.10;72.90;;;-142.21;100.00;112049.66;6275997;22;20875;-80
2022/01/18 09:10:11;;;;;;;21.17;18.33;;;10.20;72.50;;;-142.21;100.00;112049.66;6275961;22;20425;-80
2022/01/18 09:12:39;;;;;;;22.13;17.03;;;10.20;72.60;;;-142.21;100.00;112049.66;6276131;22;20407;-80
2022/01/18 09:15:09;;;;;;;23.53;17.37;;;10.20;72.50;;;-142.21;100.00;112049.66;6275762;22;20408;-80
2022/01/18 09:17:38;;;;;;;24.90;18.93;;;10.30;72.40;;;-142.21;100.00;112049.66;6276013;22;20746;-80
2022/01/18 09:20:09;;;;;;;22.07;17.70;;;10.50;73.00;;;-142.21;100.00;112049.66;6275178;22;20395;-81
2022/01/18 09:22:39;;;;;;;24.57;20.73;;;10.60;71.80;;;-142.21;100.00;112049.66;6275665;22;20757;-81
2022/01/18 09:25:12;;;;;;;23.07;20.57;;;10.70;71.70;;;-142.21;100.00;112049.66;6275528;22;20430;-81
2022/01/18 09:27:46;;;;;;;23.43;19.40;;;10.90;71.30;;;-142.21;100.00;112049.66;6276011;22;20452;-80
2022/01/18 09:30:15;;;;;;;22.30;17.03;;;11.20;70.80;;;-142.21;100.00;112049.66;6275628;22;20764;-80
2022/01/18 09:32:43;;;;;;;21.53;18.67;;;11.40;70.10;;;-142.21;100.00;112049.66;6276102;22;20438;-80
2022/01/18 09:35:11;;;;;;;20.90;17.40;;;11.70;69.80;;;-142.21;100.00;112049.66;6275930;22;20806;-80
2022/01/18 09:37:39;;;;;;;19.73;17.07;;;12.00;68.50;;;-142.21;100.00;112049.66;6275717;22;20745;-80
2022/01/18 09:40:16;;;;;;;22.40;17.80;;;12.50;67.70;;;-142.21;100.00;112049.66;6275879;22;20407;-77
2022/01/18 09:42:44;;;;;;;19.97;17.57;;;12.90;66.80;;;-142.21;100.00;112049.66;6276028;22;20430;-81
2022/01/18 09:45:15;;;;;;;21.63;17.53;;;13.10;66.50;;;-142.21;100.00;112049.66;6274991;22;20902;-80
2022/01/18 09:47:46;;;;;;;19.77;16.70;;;13.00;65.70;;;-142.21;100.00;112049.66;6273714;22;20395;-79
2022/01/18 09:50:21;;;;;;;19.50;16.77;;;12.80;65.40;;;-142.21;100.00;112049.66;6275450;22;20411;-80
2022/01/18 09:52:52;;;;;;;20.17;17.60;;;12.70;65.50;;;-142.21;100.00;112049.66;6275869;22;20376;-80
2022/01/18 09:55:23;;;;;;;18.53;16.37;;;12.50;66.00;;;-142.21;100.00;112049.66;6275088;22;20402;-78
2022/01/18 09:57:51;;;;;;;19.83;16.10;;;12.40;66.40;;;-142.21;100.00;112049.66;6249723;22;20415;-79
2022/01/18 10:00:20;;;;;;;19.20;16.17;;;12.40;66.60;;;-142.21;100.00;112049.66;6275183;22;20443;-80
2022/01/18 10:02:49;;;;;;;21.47;17.17;;;12.30;66.90;;;-142.21;100.00;112049.66;6275712;22;20492;-77
2022/01/18 10:05:23;;;;;;;18.13;16.27;;;12.30;66.60;;;-142.21;100.00;112049.66;6247332;22;20403;-79
2022/01/18 10:08:00;;;;;;;17.70;15.53;;;12.20;66.70;;;-142.21;100.00;112049.66;6275510;22;20476;-80
2022/01/18 10:10:44;;;;;;;18.60;15.90;;;12.30;67.00;;;-142.21;100.00;112049.66;6275003;22;20433;-77
2022/01/18 10:13:19;;;;;;;17.87;15.73;;;12.40;66.90;;;-142.21;100.00;112049.66;6275556;22;20423;-80
2022/01/18 10:16:08;;;;;;;17.77;15.63;;;12.50;66.70;;;-142.21;100.00;112049.66;6275476;22;20402;-76
2022/01/18 10:18:47;;;;;;;20.83;16.10;;;12.60;66.40;;;-142.21;100.00;112049.66;6268299;22;20895;-80
2022/01/18 10:21:26;;;;;;;19.87;16.53;;;12.60;65.80;;;-142.21;100.00;112049.66;6275473;22;20431;-79
2022/01/18 10:24:11;;;;;;;20.40;16.23;;;12.60;66.10;;;-142.21;100.00;112049.66;6274795;22;20437;-81
2022/01/18 10:26:42;;;;;;;19.83;17.03;;;12.70;65.70;;;-142.21;100.00;112049.66;6274968;22;20379;-79
2022/01/18 10:29:11;;;;;;;19.33;16.17;;;12.70;65.20;;;-142.21;100.00;112049.66;6275901;22;20478;-77
2022/01/18 10:31:45;;;;;;;20.07;16.47;;;12.60;64.80;;;-142.21;100.00;112049.66;6274779;22;20454;-75
2022/01/18 10:34:28;;;;;;;18.60;16.60;;;12.60;64.80;;;-142.21;100.00;112049.66;6275573;22;20398;-76
2022/01/18 10:37:01;;;;;;;18.40;16.07;;;12.60;64.80;;;-142.21;100.00;112049.66;6274432;22;21113;-75
2022/01/18 10:39:33;;;;;;;20.90;16.20;;;12.60;64.50;;;-142.21;100.00;112049.66;6275371;22;20392;-78
2022/01/18 10:42:13;;;;;;;18.60;15.43;;;12.90;64.40;;;-142.21;100.00;112049.66;6274390;22;20473;-79
2022/01/18 10:44:41;;;;;;;16.83;13.37;;;13.10;64.60;;;-142.21;100.00;112049.66;6274671;22;20387;-79
2022/01/18 10:47:08;;;;;;;14.47;12.33;;;13.20;62.50;;;-142.21;100.00;112049.66;6275743;22;20403;-77
2022/01/18 10:49:40;;;;;;;16.00;13.47;;;13.20;62.60;;;-142.21;100.00;112049.66;6275376;22;20465;-80
2022/01/18 10:52:11;;;;;;;14.43;13.03;;;13.40;62.50;;;-142.21;100.00;112049.66;6248311;22;20411;-79
2022/01/18 10:54:43;;;;;;;16.80;13.53;;;13.70;62.40;;;-142.21;100.00;112049.66;6275923;22;20449;-74
2022/01/18 10:57:15;;;;;;;14.87;12.83;;;14.00;61.40;;;-142.21;100.00;112049.66;6274926;22;20387;-75
2022/01/18 10:59:42;;;;;;;16.63;12.93;;;14.20;60.70;;;-142.21;100.00;112049.66;6275741;22;20392;-79
2022/01/18 11:05:18;;;;;;;13.70;11.53;;;14.50;59.60;;;-142.21;100.00;112049.66;6282287;22;20403;-75
2022/01/18 11:07:49;;;;;;;13.03;11.00;;;14.50;59.10;;;-142.21;100.00;112049.66;6274576;22;20484;-76
2022/01/18 11:10:21;;;;;;;13.43;11.30;;;14.60;58.50;;;-142.21;100.00;112049.66;6275012;22;20403;-73
2022/01/18 11:12:58;;;;;;;12.27;10.23;;;14.70;58.10;;;-142.21;99.26;112049.66;6249481;22;20384;-78
2022/01/18 11:15:27;;;;;;;11.87;8.83;;;14.40;57.50;;;-142.21;100.00;112049.66;6275474;22;20445;-76
2022/01/18 11:18:17;;;;;;;10.03;9.00;;;14.40;58.00;;;-142.21;100.00;112049.66;6275955;22;20414;-77
2022/01/18 11:20:47;;;;;;;12.40;9.70;;;14.40;57.50;;;-142.21;100.00;112049.66;6151865;23;20449;-76
2022/01/18 11:23:17;;;;;;;12.10;8.87;;;14.70;57.80;;;-142.21;98.84;112049.66;6151523;23;20450;-78
2022/01/18 11:25:46;;;;;;;12.17;8.70;;;14.90;56.80;;;-142.21;100.00;112049.66;6151773;23;20410;-76
2022/01/18 11:28:16;;;;;;;10.37;7.97;;;14.80;56.80;;;-142.21;98.71;112049.66;6151788;23;20438;-76
2022/01/18 11:30:49;;;;;;;10.20;7.00;;;14.80;56.30;;;-142.21;99.00;112049.66;6152756;23;20415;-74
2022/01/18 11:33:20;;;;;;;8.10;5.30;;;14.70;55.90;;;-142.21;99.62;112049.66;6151126;23;20919;-78
2022/01/18 11:35:58;;;;;;;6.73;5.10;;;14.40;56.50;;;-142.21;100.00;112049.66;6152331;23;20723;-79
2022/01/18 11:38:46;;;;;;;7.27;5.27;;;14.10;56.50;;;-142.21;99.17;112049.66;6152689;23;20966;-76
2022/01/18 11:41:23;;;;;;;5.77;4.80;;;13.90;56.70;;;-142.21;100.00;112049.66;6153011;23;20391;-75
2022/01/18 11:43:55;;;;;;;5.83;4.73;;;13.60;57.10;;;-142.21;100.00;112049.66;6174030;23;20413;-76
2022/01/18 11:46:26;;;;;;;6.30;5.07;;;13.50;57.40;;;-142.21;100.00;112049.66;6180486;23;20399;-77
2022/01/18 11:49:02;;;;;;;7.03;4.77;;;13.30;56.70;;;-142.21;100.00;112049.66;6156335;23;20375;-80
2022/01/18 11:51:43;;;;;;;7.60;5.10;;;13.10;57.00;;;-142.21;100.00;112049.66;6153682;23;20411;-80
2022/01/18 11:54:30;;;;;;;7.57;5.23;;;13.00;57.70;;;-142.21;100.00;112049.66;6154638;23;20759;-80
2022/01/18 11:56:57;;;;;;;5.27;3.50;;;13.10;57.90;;;-142.21;97.14;112049.66;6173065;22;20411;-79
2022/01/18 11:59:35;;;;;;;6.07;3.80;;;13.00;56.50;;;-142.21;98.48;112049.66;6277619;22;20425;-74
2022/01/18 12:02:04;;;;;;;4.90;3.57;;;12.70;56.70;;;-142.21;99.16;112049.66;6276914;22;20484;-80
2022/01/18 12:05:13;;;;;;;5.60;4.03;;;12.80;57.30;;;-142.21;99.07;112049.66;6277236;22;20891;-77
2022/01/18 12:07:59;;;;;;;5.27;3.70;;;12.90;56.90;;;-142.21;99.98;112049.66;6277152;22;20418;-76
2022/01/18 12:10:49;;;;;;;6.37;4.87;;;13.00;57.80;;;-142.21;99.79;112049.66;6277159;22;20428;-77
2022/01/18 12:13:39;;;;;;;8.00;5.70;;;13.00;57.50;;;-142.21;99.46;112049.66;6277651;22;20394;-74
2022/01/18 12:16:19;;;;;;;6.13;4.67;;;12.90;57.30;;;-142.21;97.58;112049.66;6277212;22;20372;-75
2022/01/18 12:19:08;;;;;;;5.77;5.13;;;12.80;57.30;;;-142.21;97.24;112049.66;6276830;22;20989;-75
2022/01/18 12:21:43;;;;;;;7.30;4.90;;;12.80;56.90;;;-142.21;99.17;112049.66;6276959;22;20425;-74
2022/01/18 12:24:22;;;;;;;5.50;4.03;;;12.80;57.60;;;-142.21;94.69;112049.66;6277638;22;20394;-80
2022/01/18 12:26:59;;;;;;;5.67;3.90;;;12.80;56.20;;;-142.21;96.14;112049.66;6276474;22;20391;-75
2022/01/18 12:32:29;;;;;;;5.70;3.77;;;12.70;56.70;;;-142.21;95.69;112049.66;6265333;22;20403;-76
2022/01/18 12:35:16;;;;;;;5.17;3.77;;;12.60;56.60;;;-142.21;96.18;112049.66;6276606;22;20383;-75
2022/01/18 12:37:48;;;;;;;5.87;3.90;;;12.60;56.80;;;-142.21;96.88;112049.66;6276789;22;20442;-78
2022/01/18 12:40:35;;;;;;;6.43;3.60;;;12.60;56.90;;;-142.21;94.04;112049.66;6276801;22;20474;-76
2022/01/18 12:46:02;;;;;;;4.43;3.30;;;12.50;55.60;;;-142.21;92.25;112049.66;6276269;22;20398;-78
2022/01/18 12:48:33;;;;;;;5.57;3.80;;;12.50;55.40;;;-142.21;94.58;112049.66;6277038;22;20438;-78
2022/01/18 12:51:03;;;;;;;5.17;3.50;;;12.60;56.30;;;-142.21;90.86;112049.66;6276567;22;20395;-75
2022/01/18 12:53:36;;;;;;;4.73;3.77;;;12.50;55.40;;;-142.21;92.41;112049.66;6276254;22;20446;-76
2022/01/18 12:56:10;;;;;;;4.17;3.23;;;12.50;55.50;;;-142.21;95.16;112049.66;6276161;22;20878;-75
2022/01/18 12:58:41;;;;;;;7.70;5.13;;;12.40;56.00;;;-142.21;95.13;112049.66;6277230;22;20395;-75
2022/01/18 13:01:11;;;;;;;7.87;5.00;;;12.30;56.30;;;-142.21;95.63;112049.66;6277051;22;20388;-76
2022/01/18 13:03:43;;;;;;;7.83;4.43;;;12.20;56.60;;;-142.21;97.45;112049.66;6277309;22;20432;-75
2022/01/18 13:06:12;;;;;;;5.77;4.20;;;12.20;57.20;;;-142.21;97.40;112049.66;6276799;22;20907;-75
2022/01/18 13:08:46;;;;;;;5.33;3.80;;;12.30;57.40;;;-142.21;95.44;112049.66;6276819;22;20388;-82
2022/01/18 13:11:16;;;;;;;4.70;3.17;;;12.40;56.90;;;-142.21;92.23;112049.66;6276711;22;20403;-80
2022/01/18 13:13:52;;;;;;;3.57;3.20;;;12.30;55.80;;;-142.21;93.97;112049.66;6276851;22;20387;-74
2022/01/18 13:27:38;;;;;;;2.90;2.57;;;11.80;56.10;;;-142.21;92.27;112049.66;6275039;22;21029;-76
2022/01/18 13:30:22;;;;;;;3.07;2.30;;;11.80;55.90;;;-142.21;90.84;112049.66;6275719;22;20398;-76
2022/01/18 13:33:00;;;;;;;3.53;2.43;;;11.70;55.70;;;-142.21;91.93;112049.66;6275727;22;20772;-75
2022/01/18 13:35:31;;;;;;;2.60;2.20;;;11.80;55.70;;;-142.21;91.19;112049.66;6276825;22;20671;-76
2022/01/18 13:38:02;;;;;;;4.27;2.27;;;11.80;55.70;;;-142.21;90.95;112049.66;6276469;22;20439;-74
2022/01/18 13:40:32;;;;;;;4.43;1.90;;;11.80;55.70;;;-142.21;89.74;112049.66;6276422;22;20388;-75
2022/01/18 13:43:06;;;;;;;2.50;1.80;;;11.80;55.20;;;-142.21;90.04;112049.66;6276085;22;20474;-76
2022/01/18 13:45:35;;;;;;;2.53;2.13;;;11.60;54.80;;;-142.21;90.69;112049.66;6276509;22;20372;-74
2022/01/18 13:48:08;;;;;;;3.37;2.60;;;11.60;55.50;;;-142.21;91.90;112049.66;6277004;22;20407;-75
2022/01/18 13:50:45;;;;;;;4.07;2.60;;;11.50;55.90;;;-142.21;91.40;112049.66;6276681;22;20395;-75
2022/01/18 13:53:17;;;;;;;3.80;2.20;;;11.50;55.80;;;-142.21;90.31;112049.66;6276656;22;20461;-75
2022/01/18 13:55:52;;;;;;;3.07;2.27;;;11.50;55.80;;;-142.21;91.32;112049.66;6249538;22;20394;-78
2022/01/18 13:58:29;;;;;;;5.10;2.67;;;11.50;56.00;;;-142.21;92.58;112049.66;6275189;22;20453;-73
2022/01/18 14:01:09;;;;;;;3.30;2.57;;;11.50;56.10;;;-142.21;93.28;112049.66;6275967;22;20429;-76
2022/01/18 14:03:40;;;;;;;5.33;3.50;;;11.40;56.30;;;-142.21;94.06;112049.66;6276694;22;20463;-76
2022/01/18 14:06:11;;;;;;;5.80;3.70;;;11.30;56.70;;;-142.21;95.23;112049.66;6275509;22;20857;-75
2022/01/18 14:08:42;;;;;;;5.40;3.60;;;11.20;56.90;;;-142.21;94.90;112049.66;6276233;22;20447;-75
2022/01/18 14:11:19;;;;;;;4.37;3.53;;;11.30;57.30;;;-142.21;95.44;112049.66;6275105;22;20914;-72
2022/01/18 14:13:46;;;;;;;5.07;3.97;;;11.30;57.50;;;-142.21;94.99;112049.66;6276105;22;20695;-76
2022/01/18 14:16:27;;;;;;;7.43;4.13;;;11.30;57.90;;;-142.21;95.74;112049.66;6275895;22;20426;-75
2022/01/18 14:18:58;;;;;;;5.10;3.63;;;11.30;57.60;;;-142.21;95.73;112049.66;6276305;22;20387;-76
2022/01/18 14:21:35;;;;;;;3.97;3.20;;;11.30;57.80;;;-142.21;95.61;112049.66;6276078;22;20934;-75
2022/01/18 14:24:16;;;;;;;3.30;3.00;;;11.20;57.40;;;-142.21;95.42;112049.66;6276088;22;20749;-75
2022/01/18 14:27:01;;;;;;;3.77;2.83;;;11.20;57.40;;;-142.21;95.22;112049.66;6275813;22;20414;-75
2022/01/18 14:29:46;;;;;;;4.73;2.73;;;11.30;57.30;;;-142.21;93.79;112049.66;6276303;22;20403;-77
2022/01/18 14:32:16;;;;;;;3.30;2.67;;;11.20;57.10;;;-142.21;93.25;112049.66;6276035;22;20372;-75
2022/01/18 14:34:51;;;;;;;3.03;2.37;;;11.30;57.00;;;-142.21;94.24;112049.66;6276540;22;20844;-79
2022/01/18 14:37:20;;;;;;;3.17;2.47;;;11.30;56.70;;;-142.21;91.48;112049.66;6275866;22;20446;-75
2022/01/18 14:40:00;;;;;;;2.90;2.50;;;11.30;56.40;;;-142.21;93.42;112049.66;6275972;22;20403;-75
2022/01/18 14:42:33;;;;;;;5.37;3.83;;;11.30;56.60;;;-142.21;94.15;112049.66;6275252;22;20414;-76
2022/01/18 14:45:07;;;;;;;4.80;3.63;;;11.40;57.00;;;-142.21;93.23;112049.66;6276163;22;20898;-75
2022/01/18 14:47:35;;;;;;;5.70;3.50;;;11.40;56.50;;;-142.21;94.34;112049.66;6275849;22;20762;-76
2022/01/18 14:50:08;;;;;;;5.70;2.90;;;11.40;56.70;;;-142.21;93.89;112049.66;6276260;22;20415;-75
2022/01/18 14:52:37;;;;;;;3.70;2.83;;;11.30;56.50;;;-142.21;94.45;112049.66;6275414;22;20808;-75
2022/01/18 14:55:07;;;;;;;5.63;3.00;;;11.20;56.60;;;-142.21;95.21;112049.66;6275784;22;20469;-75
2022/01/18 14:57:34;;;;;;;3.93;2.50;;;11.20;57.40;;;-142.21;94.36;112049.66;6248970;22;20541;-75
2022/01/18 15:00:05;;;;;;;3.53;2.80;;;11.20;57.30;;;-142.21;94.46;112049.66;6275930;22;20388;-75
2022/01/18 15:02:32;;;;;;;3.37;2.50;;;11.10;57.20;;;-142.21;96.76;112049.66;6275524;22;20453;-74
2022/01/18 15:05:00;;;;;;;5.23;3.27;;;11.20;57.70;;;-142.21;96.43;112049.66;6276009;22;20410;-74
2022/01/18 15:07:27;;;;;;;3.70;2.90;;;11.30;57.70;;;-142.21;98.13;112049.66;6276070;22;20932;-78
2022/01/18 15:09:56;;;;;;;3.07;2.37;;;11.40;57.90;;;-142.21;96.83;112049.66;6275599;22;20423;-77
2022/01/18 15:12:23;;;;;;;4.53;2.60;;;11.30;57.40;;;-142.21;96.61;112049.66;6276019;22;20475;-75
2022/01/18 15:14:51;;;;;;;3.77;3.07;;;11.40;57.60;;;-142.21;97.24;112049.66;6275795;22;20392;-77
2022/01/18 15:17:18;;;;;;;3.73;2.90;;;11.40;57.70;;;-142.21;97.51;112049.66;6277083;22;20891;-74
2022/01/18 15:19:48;;;;;;;3.43;2.90;;;11.40;57.70;;;-142.21;97.24;112049.66;6278316;22;20407;-74
2022/01/18 15:22:15;;;;;;;5.10;3.27;;;11.40;57.40;;;-142.21;97.42;112049.66;6278106;22;20395;-74
2022/01/18 15:24:43;;;;;;;4.40;3.17;;;11.30;57.50;;;-142.21;96.39;112049.66;6277268;22;20520;-75
2022/01/18 15:27:11;;;;;;;4.87;3.83;;;11.20;57.80;;;-142.21;96.12;112049.66;6278050;22;20940;-75
2022/01/18 15:29:41;;;;;;;4.00;3.20;;;11.10;57.60;;;-142.21;96.48;112049.66;6278242;22;20948;-75
2022/01/18 15:32:10;;;;;;;4.10;2.80;;;11.10;57.60;;;-142.21;96.80;112049.66;6278151;22;20490;-75
2022/01/18 15:34:37;;;;;;;4.33;3.17;;;11.10;57.70;;;-142.21;96.80;112049.66;6278262;22;20395;-75
2022/01/18 15:37:05;;;;;;;5.13;3.23;;;11.10;58.00;;;-142.21;97.48;112049.66;6277019;22;20435;-74
2022/01/18 15:39:34;;;;;;;4.00;2.83;;;11.20;58.00;;;-142.21;96.28;112049.66;6277709;22;20403;-76
2022/01/18 15:42:01;;;;;;;4.40;3.20;;;11.20;57.80;;;-142.21;95.61;112049.66;6277382;22;20410;-74
2022/01/18 15:44:30;;;;;;;3.37;2.60;;;11.10;57.40;;;-142.21;94.79;112049.66;6277730;22;20439;-75
2022/01/18 15:46:57;;;;;;;3.67;3.03;;;11.10;57.10;;;-142.21;94.24;112049.66;6277435;22;20465;-75
2022/01/18 15:49:25;;;;;;;4.23;2.70;;;11.00;57.10;;;-142.21;96.08;112049.66;6277801;22;20509;-76
2022/01/18 15:51:54;;;;;;;4.07;3.67;;;11.00;57.30;;;-142.21;95.26;112049.66;6283512;22;20402;-76
2022/01/18 15:54:21;;;;;;;4.93;4.00;;;10.80;57.20;;;-142.21;95.94;112049.66;6277405;22;20403;-75
2022/01/18 15:56:49;;;;;;;4.20;3.53;;;10.80;57.80;;;-142.21;96.51;112049.66;6277779;22;20411;-74
2022/01/18 15:59:17;;;;;;;4.23;3.83;;;10.90;57.80;;;-142.21;95.50;112049.66;6277114;22;20392;-74
2022/01/18 16:01:46;;;;;;;4.13;3.60;;;10.90;57.80;;;-142.21;97.10;112049.66;6277873;22;20431;-75
2022/01/18 16:04:14;;;;;;;4.30;3.90;;;11.00;58.00;;;-142.21;96.04;112049.66;6277551;22;20443;-75
2022/01/18 16:06:42;;;;;;;4.33;3.77;;;11.00;57.80;;;-142.21;95.93;112049.66;6277990;22;20410;-80
2022/01/18 16:09:11;;;;;;;5.87;3.70;;;11.00;58.40;;;-142.21;96.34;112049.66;6277317;22;20883;-74
2022/01/18 16:11:39;;;;;;;4.50;4.00;;;10.90;58.10;;;-142.21;95.88;112049.66;6278773;22;20946;-74
2022/01/18 16:14:06;;;;;;;5.73;4.57;;;10.80;57.70;;;-142.21;94.95;112049.66;6279289;22;20414;-77
2022/01/18 16:16:36;;;;;;;4.93;4.30;;;10.80;57.40;;;-142.21;94.70;112049.66;6301814;22;20399;-74
2022/01/18 16:19:05;;;;;;;5.67;4.97;;;10.70;57.40;;;-142.21;96.14;112049.66;6305139;22;20410;-74
2022/01/18 16:21:32;;;;;;;5.30;4.80;;;10.70;57.60;;;-142.21;95.45;112049.66;6281668;22;20395;-74
2022/01/18 16:24:00;;;;;;;5.93;4.27;;;10.70;57.80;;;-142.21;94.92;112049.66;6277628;22;21019;-74
2022/01/18 16:26:28;;;;;;;5.60;3.83;;;10.60;57.60;;;-142.21;95.55;112049.66;6250585;22;20395;-74
2022/01/18 16:28:55;;;;;;;4.73;4.23;;;10.60;57.80;;;-142.21;95.36;112049.66;6277453;22;20407;-74
2022/01/18 16:31:22;;;;;;;8.70;4.20;;;10.60;57.80;;;-142.21;96.81;112049.66;6277116;22;20407;-74
2022/01/18 16:33:50;;;;;;;4.90;3.87;;;10.50;57.90;;;-142.21;96.63;112049.66;6277614;22;20410;-75
2022/01/18 16:36:19;;;;;;;6.07;4.20;;;10.50;58.20;;;-142.21;97.14;112049.66;6276692;22;20399;-75
2022/01/18 16:38:47;;;;;;;4.80;3.90;;;10.50;58.40;;;-142.21;97.90;112049.66;6276991;22;20485;-76
2022/01/18 16:41:14;;;;;;;8.00;4.70;;;10.60;58.60;;;-142.21;97.27;112049.66;6277892;22;20404;-74
2022/01/18 16:43:42;;;;;;;4.97;3.93;;;10.60;58.40;;;-142.21;97.53;112049.66;6277089;22;20438;-74
2022/01/18 16:46:09;;;;;;;5.03;4.27;;;10.60;58.40;;;-142.21;97.85;112049.66;6277440;22;20415;-75
2022/01/18 16:48:37;;;;;;;5.93;4.43;;;10.60;58.50;;;-142.21;97.51;112049.66;6277345;22;20446;-75
2022/01/18 16:51:05;;;;;;;5.60;4.43;;;10.70;58.40;;;-142.21;97.91;112049.66;6250550;22;20449;-75
2022/01/18 16:53:34;;;;;;;6.20;5.60;;;10.70;58.40;;;-142.21;97.92;112049.66;6276822;22;20399;-73
2022/01/18 16:56:03;;;;;;;5.73;5.17;;;10.60;58.40;;;-142.21;98.79;112049.66;6277503;22;20876;-76
2022/01/18 16:58:30;;;;;;;7.47;5.27;;;10.70;58.60;;;-142.21;97.34;112049.66;6276845;22;20483;-75
2022/01/18 17:00:58;;;;;;;5.47;4.97;;;10.70;58.40;;;-142.21;98.00;112049.66;6277356;22;20399;-76
2022/01/18 17:03:26;;;;;;;6.17;5.57;;;10.60;58.70;;;-142.21;97.82;112049.66;6277231;22;20945;-77
2022/01/18 17:05:53;;;;;;;6.10;4.73;;;10.70;58.60;;;-142.21;97.23;112049.66;6277019;22;20396;-75
2022/01/18 17:08:20;;;;;;;7.03;5.10;;;10.70;58.60;;;-142.21;98.36;112049.66;6277194;22;20964;-74
2022/01/18 17:10:49;;;;;;;6.57;5.20;;;10.70;58.60;;;-142.21;96.44;112049.66;6276957;22;20394;-74
2022/01/18 17:13:17;;;;;;;6.67;5.23;;;10.70;58.50;;;-142.21;96.76;112049.66;6277050;22;20396;-75
2022/01/18 17:15:44;;;;;;;7.17;5.77;;;10.60;58.30;;;-142.21;96.43;112049.66;6277001;22;20501;-75
2022/01/18 17:18:12;;;;;;;6.60;4.57;;;10.40;58.20;;;-142.21;95.88;112049.66;6277322;22;20871;-76
2022/01/18 17:20:39;;;;;;;6.83;4.93;;;10.40;58.30;;;-142.21;96.71;112049.66;6276447;22;20493;-75
2022/01/18 17:23:06;;;;;;;5.10;4.37;;;10.40;58.60;;;-142.21;97.21;112049.66;6276935;22;20887;-76
2022/01/18 17:25:34;;;;;;;5.43;4.40;;;10.50;58.80;;;-142.21;95.98;112049.66;6277318;22;20392;-75
2022/01/18 17:28:03;;;;;;;4.83;3.87;;;10.50;58.20;;;-142.21;96.51;112049.66;6198708;22;20483;-75
2022/01/18 17:30:31;;;;;;;5.17;4.20;;;10.40;58.30;;;-142.21;96.23;112049.66;6277598;22;20728;-75
2022/01/18 17:32:58;;;;;;;5.50;4.07;;;10.40;58.40;;;-142.21;96.42;112049.66;6276307;22;20423;-78
2022/01/18 17:35:26;;;;;;;5.27;4.03;;;10.40;58.50;;;-142.21;96.97;112049.66;6276456;22;20453;-75
2022/01/18 17:37:53;;;;;;;5.97;4.10;;;10.30;58.50;;;-142.21;95.72;112049.66;6275947;22;20470;-76
2022/01/18 17:40:20;;;;;;;7.47;4.87;;;10.30;58.70;;;-142.21;96.10;112049.66;6276207;22;20411;-74
2022/01/18 17:42:49;;;;;;;7.47;5.60;;;10.40;58.50;;;-142.21;96.62;112049.66;6276057;22;20399;-74
2022/01/18 17:45:19;;;;;;;6.10;5.17;;;10.50;58.80;;;-142.21;96.17;112049.66;6276173;22;20435;-75
2022/01/18 17:47:47;;;;;;;6.87;4.27;;;10.60;58.60;;;-142.21;96.25;112049.66;6276140;22;20453;-73
2022/01/18 17:50:15;;;;;;;5.23;4.43;;;10.60;58.20;;;-142.21;95.79;112049.66;6276151;22;20888;-75
2022/01/18 17:52:43;;;;;;;4.00;3.60;;;10.50;57.90;;;-142.21;95.91;112049.66;6249257;22;20418;-74
2022/01/18 17:55:11;;;;;;;5.33;3.83;;;10.50;57.90;;;-142.21;95.43;112049.66;6276148;22;20408;-76
2022/01/18 17:57:40;;;;;;;4.90;3.43;;;10.50;58.00;;;-142.21;95.69;112049.66;6276432;22;20395;-76